M I D A S
Marine Information and Data Acquisition System
Tripno 444 of the Zeeleeuw from 2003-03-11 07:39:54 to 2003-03-11 13:04:54
Back to CruiseResearch ActivitiesStationsMapUnderway DataData graphs

EquipmentUnitsComment
TimeDGPSUTC
LatitudeDGPSDM.mWGS84
LongitudeDGPSDM.mWGS84
TemperatureSBE03/SBE38deg celciusITS90
ConductivitySBE21S/mITS90
SalinitySBE21 Practical Salinity Units
ChlorophylAChelsea fluorimeterg/lCalibrated in Aceton
Missing or incorrect values are displayed as -999
Sea surface data collected by the RV Zeeleeuw from 2003-03-11 07:39:54 to 2003-03-11 13:04:54
Time Latitude Longitude Temperature Conductivity Salinity ChlorophylA
2003-03-11 07:41:00 51°13.603 2°56.052 8.003199 2.741694 24.954241 3.634683
2003-03-11 07:42:00 51°13.637 2°55.932 7.60226 3.029195 28.520264 22.410819
2003-03-11 07:43:00 51°13.681 2°55.809 7.411807 3.077516 29.271222 16.781349
2003-03-11 07:43:58 51°13.698 2°55.755 7.360722 3.105416 29.684443 17.28699
2003-03-11 07:44:59 51°13.706 2°55.759 7.341958 3.058675 29.250982 17.792631
2003-03-11 07:45:59 51°13.699 2°55.736 7.306613 3.033095 29.00258 19.343264
2003-03-11 07:46:59 51°13.743 2°55.707 7.308031 3.095626 29.686993 21.23099
2003-03-11 07:47:58 51°13.839 2°55.62 7.331742 3.089941 29.631756 23.320973
2003-03-11 07:48:59 51°13.953 2°55.529 7.311063 3.03099 29.002095 20.152289
2003-03-11 07:49:58 51°14.068 2°55.439 7.332525 3.057939 29.287092 19.882614
2003-03-11 07:50:59 51°14.187 2°55.346 7.310818 3.06236 29.330335 17.691503
2003-03-11 07:51:58 51°14.279 2°55.231 7.353295 3.093205 29.677855 16.208289
2003-03-11 07:52:59 51°14.369 2°55.044 7.339612 3.043096 29.121613 17.624084
2003-03-11 07:53:59 51°14.43 2°54.817 7.29693 3.100785 29.751055 19.680358
2003-03-11 07:54:59 51°14.413 2°54.593 7.304804 3.188805 30.712689 23.658067
2003-03-11 07:55:58 51°14.374 2°54.489 7.257597 3.298322 31.875416 27.838033
2003-03-11 07:56:59 51°14.334 2°54.46 7.232487 3.393115 32.941804 31.242683
2003-03-11 07:57:58 51°14.304 2°54.45 7.221814 3.423347 33.292049 31.849452
2003-03-11 07:58:59 51°14.279 2°54.431 7.21535 3.425981 33.328596 32.591059
2003-03-11 07:59:59 51°14.265 2°54.396 7.218729 3.436409 33.443712 33.265247
2003-03-11 08:00:58 51°14.253 2°54.324 7.220198 3.438305 33.462577 34.647332
2003-03-11 08:01:58 51°14.173 2°54.098 7.226612 3.436936 33.44859 34.78217
2003-03-11 08:02:58 51°14.078 2°53.833 7.224213 3.435461 33.435093 34.78217
2003-03-11 08:03:59 51°13.979 2°53.558 7.22813 3.436515 33.446478 34.512494
2003-03-11 08:04:59 51°13.882 2°53.287 7.209718 3.43504 33.433794 35.018136
2003-03-11 08:05:58 51°13.782 2°53.005 7.175036 3.439149 33.503488 36.669896
2003-03-11 08:06:59 51°13.676 2°52.686 8.790443 3.438201 33.508743 36.231674
2003-03-11 08:07:58 51°13.573 2°52.373 8.886084 3.437358 33.518414 33.669759
2003-03-11 08:08:58 51°13.468 2°52.055 8.910651 3.438517 33.551422 33.905725
2003-03-11 08:09:59 51°13.363 2°51.73 8.63812 3.438517 33.559613 33.568631
2003-03-11 08:10:58 51°13.26 2°51.414 8.700164 3.438833 33.563039 33.197828
2003-03-11 08:11:59 51°13.153 2°51.088 8.979248 3.437359 33.554426 33.770888
2003-03-11 08:12:59 51°13.05 2°50.771 8.736282 3.440413 33.590008 33.838306
2003-03-11 08:13:59 51°12.946 2°50.455 8.663548 3.439254 33.546313 29.354956
2003-03-11 08:14:59 51°12.842 2°50.136 8.879594 3.43957 33.557923 31.984289
2003-03-11 08:15:59 51°12.738 2°49.816 8.38444 3.43936 33.576126 35.220392
2003-03-11 08:16:58 51°12.635 2°49.5 9.003686 3.440624 33.605424 34.78217
2003-03-11 08:17:59 51°12.529 2°49.173 8.615269 3.439044 33.59485 33.534922
2003-03-11 08:18:59 51°12.425 2°48.853 9.093495 3.435673 33.554182 32.557349
2003-03-11 08:19:58 51°12.319 2°48.543 8.655552 3.444206 33.64428 30.871879
2003-03-11 08:20:59 51°12.209 2°48.219 9.350526 3.443785 33.653687 31.006717
2003-03-11 08:21:58 51°12.104 2°47.905 8.645735 3.4421 33.657608 32.220255
2003-03-11 08:22:59 51°11.995 2°47.583 8.260453 3.439993 33.660254 33.130409
2003-03-11 08:23:59 51°11.888 2°47.265 8.395451 3.437676 33.661441 33.029281
2003-03-11 08:24:59 51°11.778 2°46.945 8.366887 3.436201 33.666853 31.276392
2003-03-11 08:25:58 51°11.671 2°46.627 8.290269 3.436096 33.676441 30.602204
2003-03-11 08:26:59 51°11.564 2°46.302 8.482316 3.435359 33.679154 29.928016
2003-03-11 08:27:59 51°11.457 2°45.983 8.168271 3.435253 33.682966 28.883024
2003-03-11 08:28:59 51°11.348 2°45.663 8.216934 3.436202 33.692464 28.208836
2003-03-11 08:29:59 51°11.243 2°45.344 8.656175 3.436623 33.688785 26.354819
2003-03-11 08:30:59 51°11.136 2°45.023 8.556932 3.437149 33.681298 26.927879
2003-03-11 08:31:58 51°11.031 2°44.707 8.578461 3.436096 33.654154 27.736905
2003-03-11 08:32:59 51°10.922 2°44.379 8.243444 3.43757 33.647105 29.624631
2003-03-11 08:33:59 51°10.815 2°44.058 8.141681 3.43757 33.629808 30.669623
2003-03-11 08:34:59 51°10.71 2°43.737 8.329889 3.438939 33.628225 29.051571
2003-03-11 08:35:59 51°10.671 2°43.386 8.321033 3.441362 33.616709 30.26511
2003-03-11 08:36:59 51°10.699 2°43.023 8.468919 3.442942 33.614961 32.961862
2003-03-11 08:37:59 51°10.735 2°42.658 8.60051 3.443047 33.638283 31.37752
2003-03-11 08:38:59 51°10.764 2°42.288 8.400018 3.441889 33.661907 30.467366
2003-03-11 08:39:59 51°10.803 2°41.926 8.4092 3.442416 33.698962 29.928016
2003-03-11 08:40:59 51°10.842 2°41.567 8.718106 3.44347 33.730244 29.793178
2003-03-11 08:41:59 51°10.866 2°41.207 8.461235 3.445366 33.747566 30.298819
2003-03-11 08:42:59 51°10.778 2°40.878 8.534197 3.448315 33.756497 33.06299
2003-03-11 08:43:59 51°10.606 2°40.658 8.620971 3.45137 33.766567 32.995571
2003-03-11 08:44:59 51°10.406 2°40.485 8.93869 3.453687 33.77027 31.782033
2003-03-11 08:45:59 51°10.208 2°40.306 9.02859 3.450527 33.74915 32.995571
2003-03-11 08:46:59 51°10.011 2°40.124 8.407421 3.453687 33.744692 32.591059
2003-03-11 08:47:59 51°9.819 2°39.93 9.002781 3.464852 33.738993 33.973144
2003-03-11 08:48:59 51°9.742 2°39.604 8.725999 3.472436 33.758635 34.20911
2003-03-11 08:49:59 51°9.807 2°39.255 8.650093 3.471278 33.760055 31.512358
2003-03-11 08:50:59 51°9.922 2°38.937 8.900492 3.471594 33.75773 35.119264
2003-03-11 08:51:59 51°10.04 2°38.616 8.400643 3.471804 33.764927 36.838443
2003-03-11 08:52:59 51°10.169 2°38.305 8.44596 3.465274 33.782188 32.422512
2003-03-11 08:53:59 51°10.234 2°37.964 8.773956 3.462641 33.790713 31.748324
2003-03-11 08:54:59 51°10.131 2°37.649 8.532613 3.460534 33.808283 28.815606
2003-03-11 08:55:59 51°9.967 2°37.395 8.607315 3.458849 33.807331 27.231264
2003-03-11 08:56:59 51°9.802 2°37.142 8.510205 3.459692 33.810698 29.961725
2003-03-11 08:57:59 51°9.638 2°36.887 8.611197 3.461903 33.785191 33.265247
2003-03-11 08:58:59 51°9.474 2°36.629 9.073992 3.463483 33.777605 34.546204
2003-03-11 08:59:59 51°9.309 2°36.37 8.635869 3.466222 33.774354 36.973281
2003-03-11 09:00:58 51°9.146 2°36.108 8.548731 3.468118 33.765286 38.287947
2003-03-11 09:01:59 51°9.092 2°35.768 8.607747 3.469698 33.760206 41.827435
2003-03-11 09:02:59 51°9.258 2°35.546 8.683941 3.46875 33.77048 43.411777
2003-03-11 09:03:59 51°9.483 2°35.46 8.731834 3.46738 33.759773 39.83858
2003-03-11 09:04:59 51°9.707 2°35.363 9.081699 3.469488 33.816296 33.939435
2003-03-11 09:05:58 51°9.929 2°35.268 8.296721 3.464116 33.84716 26.590785
2003-03-11 09:06:59 51°10.158 2°35.2 8.542927 3.463273 33.861998 25.006443
2003-03-11 09:07:59 51°10.367 2°35.343 8.453742 3.464327 33.862681 24.534512
2003-03-11 09:08:59 51°10.541 2°35.581 8.599648 3.462958 33.919926 27.838033
2003-03-11 09:09:59 51°10.704 2°35.838 8.636252 3.461273 33.930671 28.141418
2003-03-11 09:10:58 51°10.864 2°36.093 8.625474 3.46043 33.920662 25.74805
2003-03-11 09:11:59 51°11.028 2°36.357 8.153795 3.460641 33.939597 24.905315
2003-03-11 09:12:59 51°11.189 2°36.618 8.278421 3.458745 33.905631 26.219982
2003-03-11 09:13:59 51°11.349 2°36.876 8.485341 3.459692 33.869459 25.714341
2003-03-11 09:14:59 51°11.51 2°37.136 8.413093 3.460008 33.873725 24.433383
2003-03-11 09:15:59 51°11.671 2°37.395 8.296866 3.46043 33.929811 25.073862
2003-03-11 09:16:59 51°11.83 2°37.656 8.678724 3.458218 33.939838 25.17499
2003-03-11 09:17:59 51°11.99 2°37.917 8.567194 3.459482 33.941124 28.950443
2003-03-11 09:18:59 51°12.15 2°38.174 8.566715 3.461379 33.965961 27.669486
2003-03-11 09:19:59 51°12.31 2°38.429 8.215343 3.459693 33.946752 26.927879
2003-03-11 09:20:59 51°12.493 2°38.637 8.599983 3.461062 33.948352 28.175127
2003-03-11 09:21:59 51°12.704 2°38.78 8.763057 3.462642 33.938931 29.860597
2003-03-11 09:22:59 51°12.92 2°38.903 8.799474 3.460746 33.915789 31.815742
2003-03-11 09:23:59 51°13.138 2°39.022 8.271292 3.459798 33.915441 29.422375
2003-03-11 09:24:59 51°13.357 2°39.139 8.270714 3.461273 33.949815 27.46723
2003-03-11 09:25:59 51°13.577 2°39.257 8.694853 3.458956 33.977073 27.062717
2003-03-11 09:26:59 51°13.793 2°39.374 8.139847 3.457166 33.979239 29.725759
2003-03-11 09:27:59 51°14.016 2°39.447 8.261658 3.456428 33.980378 28.950443
2003-03-11 09:28:58 51°14.236 2°39.395 8.086923 3.456007 33.998355 26.186272
2003-03-11 09:29:59 51°14.405 2°39.145 8.566619 3.454217 34.019817 25.17499
2003-03-11 09:30:59 51°14.522 2°38.829 8.269799 3.452321 34.021712 27.804324
2003-03-11 09:31:59 51°14.505 2°38.472 8.282033 3.449477 34.027504 32.725896
2003-03-11 09:32:59 51°14.429 2°38.122 8.2711 3.448529 34.033924 31.276392
2003-03-11 09:33:58 51°14.347 2°37.782 8.099531 3.448318 34.044231 30.501076
2003-03-11 09:34:59 51°14.261 2°37.425 8.07958 3.447792 34.053605 29.186409
2003-03-11 09:35:59 51°14.177 2°37.074 8.34572 3.448213 34.065811 29.186409
2003-03-11 09:36:59 51°14.095 2°36.723 7.992508 3.449162 34.086334 28.377383
2003-03-11 09:37:59 51°14.013 2°36.371 8.127924 3.451058 34.102933 28.950443
2003-03-11 09:38:59 51°13.931 2°36.024 7.790208 3.454113 34.122123 31.310101
2003-03-11 09:39:59 51°13.849 2°35.673 7.967637 3.45485 34.108287 30.029144
2003-03-11 09:40:59 51°13.893 2°35.327 8.149742 3.456851 34.104959 29.590922
2003-03-11 09:41:58 51°14.095 2°35.178 8.760858 3.458431 34.100388 29.759469
2003-03-11 09:42:59 51°14.331 2°35.156 8.161709 3.4598 34.108658 30.939298
2003-03-11 09:43:59 51°14.564 2°35.152 8.109286 3.459379 34.111617 31.141554
2003-03-11 09:44:59 51°14.795 2°35.154 8.245468 3.458536 34.122592 30.568494
2003-03-11 09:45:59 51°15.026 2°35.154 8.378333 3.45959 34.150162 26.793042
2003-03-11 09:46:59 51°15.254 2°35.131 8.610813 3.460538 34.177447 22.95017
2003-03-11 09:47:59 51°15.347 2°34.847 8.455135 3.46096 34.185451 23.826614
2003-03-11 09:48:59 51°15.258 2°34.586 8.082189 3.464225 34.18327 21.837759
2003-03-11 09:49:59 51°15.114 2°34.385 8.280059 3.46433 34.163338 22.714204
2003-03-11 09:50:59 51°14.971 2°34.171 8.634288 3.465278 34.17204 22.983879
2003-03-11 09:51:59 51°14.821 2°33.981 8.024382 3.464541 34.165646 22.613076
2003-03-11 09:52:59 51°14.675 2°33.785 8.202469 3.464436 34.158592 22.545657
2003-03-11 09:53:59 51°14.523 2°33.602 8.362269 3.463277 34.147582 23.186136
2003-03-11 09:54:59 51°14.371 2°33.42 8.635677 3.463487 34.146521 22.646785
2003-03-11 09:55:59 51°14.216 2°33.23 8.954373 3.463171 34.148113 22.073725
2003-03-11 09:56:59 51°14.062 2°33.043 8.085909 3.463593 34.151887 22.545657
2003-03-11 09:57:59 51°13.909 2°32.855 8.717484 3.462961 34.14412 22.815332
2003-03-11 09:58:59 51°13.755 2°32.668 8.871291 3.464225 34.157969 22.983879
2003-03-11 09:59:59 51°13.591 2°32.468 8.051746 3.46275 34.135917 23.253554
2003-03-11 10:00:59 51°13.403 2°32.252 8.098033 3.462961 34.133173 23.759195
2003-03-11 10:01:59 51°13.211 2°32.041 8.14255 3.465489 34.158336 23.995161
2003-03-11 10:02:58 51°13.017 2°31.848 8.061702 3.464225 34.14365 23.388392
2003-03-11 10:03:59 51°12.81 2°31.659 8.184094 3.462961 34.128123 22.882751
2003-03-11 10:04:59 51°12.605 2°31.49 8.19104 3.463803 34.133143 23.219845
2003-03-11 10:05:59 51°12.395 2°31.323 8.309817 3.461064 34.099793 24.871606
2003-03-11 10:06:59 51°12.182 2°31.164 7.880655 3.463487 34.122112 25.512084
2003-03-11 10:07:59 51°11.97 2°31.004 8.278084 3.46296 34.107099 26.32111
2003-03-11 10:08:59 51°11.766 2°30.824 8.228937 3.461169 34.067355 26.793042
2003-03-11 10:09:59 51°11.619 2°30.538 8.49883 3.461063 34.031009 26.219982
2003-03-11 10:10:59 51°11.534 2°30.184 8.346346 3.461274 34.023268 26.186272
2003-03-11 10:11:59 51°11.468 2°29.818 8.995827 3.461695 34.036239 26.32111
2003-03-11 10:12:59 51°11.406 2°29.452 8.307121 3.461906 34.053618 26.826751
2003-03-11 10:13:59 51°11.345 2°29.078 8.285694 3.463276 34.093755 28.276255
2003-03-11 10:14:58 51°11.287 2°28.705 8.132848 3.462223 34.093148 27.568358
2003-03-11 10:15:59 51°11.228 2°28.321 8.328012 3.462434 34.096294 27.804324
2003-03-11 10:16:58 51°11.17 2°27.948 8.210184 3.462433 34.090414 29.354956
2003-03-11 10:17:58 51°11.115 2°27.565 8.255298 3.461591 34.084554 31.310101
2003-03-11 10:18:59 51°11.058 2°27.178 8.43688 3.463382 34.108348 31.343811
2003-03-11 10:19:59 51°11.003 2°26.796 8.304329 3.462644 34.112046 36.973281
2003-03-11 10:20:59 51°10.947 2°26.416 8.884986 3.462644 34.119615 33.770888
2003-03-11 10:21:59 51°10.892 2°26.035 8.050054 3.462539 34.130242 34.040563
2003-03-11 10:22:59 51°10.837 2°25.655 8.244071 3.462013 34.133733 32.52364
2003-03-11 10:23:59 51°10.843 2°25.271 8.08475 3.462013 34.131207 29.287537
2003-03-11 10:24:59 51°10.976 2°24.96 8.195621 3.462223 34.144465 26.995298
2003-03-11 10:25:58 51°11.189 2°24.841 8.358132 3.462223 34.146993 27.736905
2003-03-11 10:26:59 51°11.423 2°24.818 8.374726 3.462855 34.137071 28.411093
2003-03-11 10:27:59 51°11.652 2°24.789 8.108079 3.465384 34.155498 27.46723
2003-03-11 10:28:59 51°11.882 2°24.764 8.366021 3.466964 34.156802 23.961452
2003-03-11 10:29:59 51°12.111 2°24.745 7.989122 3.469702 34.174154 23.219845
2003-03-11 10:30:59 51°12.34 2°24.725 8.745033 3.476234 34.21446 20.995024
2003-03-11 10:31:59 51°12.57 2°24.705 8.337011 3.484556 34.266711 19.781486
2003-03-11 10:32:59 51°12.798 2°24.7 8.45283 3.489402 34.296074 18.905042
2003-03-11 10:33:59 51°12.997 2°24.854 8.277506 3.496249 34.33294 17.522956
2003-03-11 10:34:59 51°13.139 2°25.129 8.344084 3.498251 34.34552 17.489247
2003-03-11 10:35:59 51°13.246 2°25.442 8.77104 3.497619 34.343677 17.86005
2003-03-11 10:36:59 51°13.351 2°25.756 8.996017 3.495196 34.327337 17.691503
2003-03-11 10:37:59 51°13.45 2°26.078 8.197357 3.493089 34.316126 18.062306
2003-03-11 10:38:59 51°13.548 2°26.404 7.943143 3.491825 34.309061 18.500529
2003-03-11 10:39:59 51°13.638 2°26.729 8.233372 3.488454 34.293299 19.410683
2003-03-11 10:40:59 51°13.734 2°27.047 8.209509 3.483502 34.26362 20.590512
2003-03-11 10:41:59 51°13.823 2°27.364 8.470888 3.479289 34.242821 21.399537
2003-03-11 10:42:59 51°13.913 2°27.689 8.402903 3.47813 34.23773 22.849042
2003-03-11 10:43:59 51°14.001 2°28.019 8.130434 3.479499 34.247654 23.118717
2003-03-11 10:44:59 51°14.124 2°28.306 8.403143 3.480448 34.251282 22.747913
2003-03-11 10:45:59 51°14.334 2°28.378 8.629211 3.482028 34.273625 23.759195
2003-03-11 10:46:59 51°14.56 2°28.336 8.491438 3.482344 34.277082 24.332255
2003-03-11 10:47:59 51°14.787 2°28.309 8.827513 3.484556 34.278508 22.983879
2003-03-11 10:48:59 51°15.015 2°28.294 8.296336 3.487084 34.290974 22.141144
2003-03-11 10:49:59 51°15.242 2°28.285 8.267246 3.490034 34.30635 21.736631
2003-03-11 10:50:59 51°15.469 2°28.275 8.498542 3.490666 34.309885 20.017452
2003-03-11 10:51:59 51°15.699 2°28.258 8.576256 3.490982 34.31671 19.815195
2003-03-11 10:52:59 51°15.928 2°28.243 8.340042 3.492352 34.331674 19.882614
2003-03-11 10:53:59 51°16.158 2°28.232 8.503006 3.492457 34.334512 20.11858
2003-03-11 10:54:59 51°16.362 2°28.344 8.621354 3.494248 34.331309 18.43311
2003-03-11 10:55:59 51°16.461 2°28.654 8.27452 3.499515 34.352576 17.152153
2003-03-11 10:56:59 51°16.517 2°29.002 8.293495 3.499304 34.356175 17.590375
2003-03-11 10:57:59 51°16.586 2°29.348 8.386123 3.496671 34.350182 19.714067
2003-03-11 10:59:00 51°16.654 2°29.701 8.020127 3.492668 34.330067 20.69164
2003-03-11 11:00:00 51°16.716 2°30.036 8.833196 3.491403 34.320471 21.80405
2003-03-11 11:01:00 51°16.792 2°30.381 8.779022 3.489086 34.314539 23.388392
2003-03-11 11:02:21 51°16.893 2°30.841 8.381603 3.487295 34.305082 24.06258
2003-03-11 11:03:20 51°16.967 2°31.172 8.68284 3.486347 34.301464 24.703059
2003-03-11 11:04:20 51°17.037 2°31.503 8.643963 3.485083 34.298607 24.703059
2003-03-11 11:05:23 51°17.121 2°31.85 8.52105 3.485188 34.302291 24.63564
2003-03-11 11:06:23 51°17.202 2°32.175 8.673937 3.484978 34.298298 24.399674
2003-03-11 11:07:23 51°17.282 2°32.508 8.586563 3.48403 34.301431 23.860324
2003-03-11 11:08:23 51°17.366 2°32.835 8.458786 3.482765 34.296885 23.388392
2003-03-11 11:09:23 51°17.504 2°33.097 8.089967 3.482239 34.30041 22.95017
2003-03-11 11:10:23 51°17.709 2°33.22 8.847186 3.481396 34.296253 23.826614
2003-03-11 11:11:23 51°17.931 2°33.221 8.555014 3.480553 34.295474 24.939024
2003-03-11 11:12:23 51°18.153 2°33.125 8.895864 3.480659 34.30508 26.051435
2003-03-11 11:13:23 51°18.373 2°33.028 8.346057 3.479079 34.293688 27.46723
2003-03-11 11:14:23 51°18.596 2°32.932 8.853583 3.479184 34.300761 28.411093
2003-03-11 11:15:23 51°18.82 2°32.838 8.548491 3.479289 34.310375 29.1527
2003-03-11 11:16:23 51°19.039 2°32.736 7.918979 3.476972 34.315444 26.186272
2003-03-11 11:17:23 51°19.257 2°32.63 8.480443 3.47318 34.314513 25.040153
2003-03-11 11:18:22 51°19.469 2°32.518 8.366358 3.469282 34.294609 25.006443
2003-03-11 11:19:22 51°19.684 2°32.405 8.405835 3.470968 34.289377 23.52323
2003-03-11 11:20:23 51°19.906 2°32.287 8.85492 3.475181 34.292416 23.658067
2003-03-11 11:21:23 51°20.128 2°32.24 8.499454 3.480448 34.310383 25.17499
2003-03-11 11:22:23 51°20.319 2°32.412 8.029798 3.483082 34.315553 26.557076
2003-03-11 11:23:23 51°20.452 2°32.689 8.895387 3.483924 34.314638 26.388529
2003-03-11 11:24:23 51°20.518 2°33.023 8.53175 3.485294 34.322023 26.253691
2003-03-11 11:25:22 51°20.581 2°33.348 8.508669 3.48266 34.312629 26.691913
2003-03-11 11:26:23 51°20.646 2°33.689 7.995072 3.480237 34.308075 24.804187
2003-03-11 11:27:23 51°20.712 2°34.02 8.588816 3.47476 34.298801 24.129999
2003-03-11 11:28:23 51°20.78 2°34.351 8.049619 3.46391 34.275448 25.141281
2003-03-11 11:29:23 51°20.854 2°34.683 8.364771 3.459907 34.259438 25.512084
2003-03-11 11:30:23 51°20.925 2°35.014 8.171697 3.46075 34.271259 25.512084
2003-03-11 11:31:22 51°20.979 2°35.345 8.790635 3.461171 34.258061 24.534512
2003-03-11 11:32:23 51°20.917 2°35.679 8.238191 3.46549 34.276694 22.95017
2003-03-11 11:33:23 51°20.763 2°35.941 8.219441 3.470546 34.29238 24.163708
2003-03-11 11:34:23 51°20.588 2°36.164 8.298214 3.473601 34.308116 26.489657
2003-03-11 11:35:22 51°20.409 2°36.377 8.65876 3.473496 34.316287 28.343674
2003-03-11 11:36:22 51°20.226 2°36.594 8.271485 3.471494 34.289227 26.759332
2003-03-11 11:37:23 51°20.04 2°36.817 8.003538 3.473917 34.31328 25.680631
2003-03-11 11:38:22 51°19.863 2°37.033 8.330803 3.474128 34.300337 23.388392
2003-03-11 11:39:23 51°19.68 2°37.259 8.056965 3.473706 34.287245 24.298546
2003-03-11 11:40:22 51°19.522 2°37.503 8.131351 3.47339 34.281239 24.500802
2003-03-11 11:41:23 51°19.527 2°37.844 8.091609 3.472548 34.282153 23.961452
2003-03-11 11:42:23 51°19.667 2°38.095 8.150465 3.470757 34.259122 24.365965
2003-03-11 11:43:22 51°19.821 2°38.328 8.182551 3.469914 34.242267 25.040153
2003-03-11 11:44:23 51°19.973 2°38.595 8.53578 3.469808 34.236041 25.242409
2003-03-11 11:45:22 51°20.11 2°38.868 7.78283 3.469914 34.240577 26.2874
2003-03-11 11:46:23 51°20.25 2°39.142 8.434766 3.469914 34.246495 24.399674
2003-03-11 11:47:23 51°20.388 2°39.417 8.237758 3.46707 34.244898 25.242409
2003-03-11 11:48:22 51°20.526 2°39.683 8.199045 3.46391 34.244917 24.197418
2003-03-11 11:49:23 51°20.658 2°39.976 8.709351 3.464226 34.240764 24.63564
2003-03-11 11:50:23 51°20.792 2°40.269 8.278999 3.464437 34.243925 25.006443
2003-03-11 11:51:23 51°20.816 2°40.604 8.25207 3.466017 34.251114 24.60193
2003-03-11 11:52:23 51°20.723 2°40.925 8.819585 3.467807 34.263154 23.759195
2003-03-11 11:53:23 51°20.547 2°41.147 8.58733 3.464226 34.241611 24.534512
2003-03-11 11:54:22 51°20.332 2°41.259 7.864321 3.458538 34.214688 26.489657
2003-03-11 11:55:22 51°20.111 2°41.371 8.820158 3.456009 34.197062 25.276118
2003-03-11 11:56:23 51°19.887 2°41.485 8.485725 3.4578 34.203195 23.792905
2003-03-11 11:57:23 51°19.667 2°41.605 8.702461 3.460539 34.217201 21.770341
2003-03-11 11:58:23 51°19.453 2°41.749 7.99812 3.463067 34.222111 20.253418
2003-03-11 11:59:22 51°19.297 2°41.989 8.662064 3.462856 34.22657 21.601794
2003-03-11 12:00:23 51°19.325 2°42.321 7.980025 3.458748 34.198373 23.017589
2003-03-11 12:01:23 51°19.455 2°42.6 8.27057 3.45306 34.157022 24.534512
2003-03-11 12:02:23 51°19.59 2°42.879 8.328156 3.451901 34.145133 24.298546
2003-03-11 12:03:23 51°19.725 2°43.165 8.659526 3.451479 34.143885 23.995161
2003-03-11 12:04:22 51°19.848 2°43.448 8.304329 3.450426 34.134844 24.399674
2003-03-11 12:05:22 51°19.971 2°43.734 7.778025 3.451058 34.139254 26.388529
2003-03-11 12:06:23 51°20.1 2°44.022 8.753831 3.448425 34.139063 26.017725
2003-03-11 12:07:23 51°20.214 2°44.326 7.764335 3.441473 34.118438 25.377247
2003-03-11 12:08:23 51°20.303 2°44.646 8.212739 3.437786 34.104095 22.882751
2003-03-11 12:09:23 51°20.34 2°44.985 7.84614 3.436733 34.08825 22.410819
2003-03-11 12:10:23 51°20.362 2°45.335 7.850262 3.43589 34.079812 21.399537
2003-03-11 12:11:23 51°20.37 2°45.686 8.09045 3.435995 34.069119 22.309691
2003-03-11 12:12:22 51°20.373 2°46.027 8.09359 3.435363 34.06639 23.354683
2003-03-11 12:13:23 51°20.371 2°46.383 8.226382 3.434836 34.057203 25.006443
2003-03-11 12:14:23 51°20.374 2°46.73 7.892576 3.433888 34.040842 23.556939
2003-03-11 12:15:23 51°20.368 2°47.08 7.996427 3.428832 34.009672 22.95017
2003-03-11 12:16:23 51°20.354 2°47.434 8.003103 3.418299 33.940058 20.69164
2003-03-11 12:17:23 51°20.342 2°47.786 8.013211 3.410293 33.883011 19.612939
2003-03-11 12:18:23 51°20.245 2°48.084 7.537637 3.406501 33.857208 18.298272
2003-03-11 12:19:23 51°20.022 2°48.164 8.179077 3.402815 33.817367 17.792631
2003-03-11 12:20:23 51°19.785 2°48.201 8.028976 3.403973 33.813293 18.264563
2003-03-11 12:21:22 51°19.548 2°48.239 8.356352 3.409029 33.825238 18.567947
2003-03-11 12:22:23 51°19.307 2°48.282 8.54451 3.416086 33.852468 20.624221
2003-03-11 12:23:23 51°19.073 2°48.327 8.397951 3.429884 33.924309 25.512084
2003-03-11 12:24:23 51°18.917 2°48.529 8.204639 3.434098 33.948728 30.029144
2003-03-11 12:25:23 51°18.948 2°48.864 8.421984 3.435362 33.950838 28.815606
2003-03-11 12:26:23 51°18.996 2°49.208 7.630777 3.436836 33.954419 29.11899
2003-03-11 12:27:23 51°19.04 2°49.555 8.538946 3.437258 33.959884 29.220118
2003-03-11 12:28:23 51°19.071 2°49.906 8.353851 3.436942 33.944656 28.141418
2003-03-11 12:29:24 51°19.089 2°50.269 7.779627 3.435046 33.929731 26.826751
2003-03-11 12:30:23 51°19.077 2°50.604 7.821648 3.429779 33.895434 25.680631
2003-03-11 12:31:23 51°18.884 2°50.761 8.316604 3.426724 33.849336 24.06258
2003-03-11 12:32:23 51°18.646 2°50.766 7.994976 3.422721 33.833058 24.500802
2003-03-11 12:33:23 51°18.406 2°50.771 8.504686 3.422089 33.825282 25.040153
2003-03-11 12:34:23 51°18.228 2°50.94 8.327097 3.429674 33.902672 26.085144
2003-03-11 12:35:23 51°18.219 2°51.286 7.86975 3.428725 33.878001 26.927879
2003-03-11 12:36:23 51°18.221 2°51.64 8.572996 3.430832 33.897765 27.703195
2003-03-11 12:37:23 51°18.218 2°51.995 8.366358 3.429041 33.876437 27.703195
2003-03-11 12:38:23 51°18.123 2°52.307 8.511789 3.427567 33.855229 28.444802
2003-03-11 12:39:23 51°17.898 2°52.381 8.433277 3.428409 33.84856 28.377383
2003-03-11 12:40:23 51°17.659 2°52.399 8.150803 3.426092 33.829844 29.658341
2003-03-11 12:41:24 51°17.415 2°52.417 8.324017 3.426724 33.830916 30.635913
2003-03-11 12:42:23 51°17.179 2°52.432 8.60674 3.433992 33.897209 30.332529
2003-03-11 12:43:24 51°16.938 2°52.466 8.734225 3.430726 33.853877 31.276392
2003-03-11 12:44:23 51°16.719 2°52.592 8.885416 3.431358 33.848255 32.456221
2003-03-11 12:45:23 51°16.512 2°52.779 8.837398 3.434097 33.829787 31.916871
2003-03-11 12:46:23 51°16.315 2°52.984 8.928344 3.441048 33.845757 30.83817
2003-03-11 12:47:23 51°16.146 2°53.143 8.553719 3.437887 33.749748 25.916597
2003-03-11 12:48:23 51°16.048 2°53.198 8.769511 3.433041 33.657226 23.085007
2003-03-11 12:49:23 51°16.025 2°53.191 8.575297 3.430408 33.61783 20.624221
2003-03-11 12:50:24 51°16.019 2°53.187 8.730351 3.428406 33.595225 20.590512
2003-03-11 12:51:23 51°16.011 2°53.185 8.182068 3.429776 33.608479 20.523093
2003-03-11 12:52:23 51°16.001 2°53.184 8.571605 3.42946 33.603391 21.298409
2003-03-11 12:53:23 51°15.989 2°53.183 8.338791 3.427458 33.584909 20.961315
2003-03-11 12:54:23 51°15.978 2°53.182 8.546477 3.429459 33.600919 20.725349
2003-03-11 12:55:23 51°15.958 2°53.184 8.506894 3.429249 33.589565 20.388255
2003-03-11 12:56:23 51°15.819 2°53.305 8.350339 3.429354 33.5833 19.747777
2003-03-11 12:57:23 51°15.646 2°53.496 8.723463 3.428933 33.577072 21.096153
2003-03-11 12:58:23 51°15.475 2°53.696 8.723033 3.42514 33.502993 21.80405
2003-03-11 12:59:23 51°15.307 2°53.906 8.377564 3.424297 33.440626 23.624358
2003-03-11 13:00:24 51°15.135 2°54.114 8.739294 3.422506 33.408144 25.646922
2003-03-11 13:01:23 51°14.969 2°54.316 8.289739 3.41924 33.364603 28.00658
2003-03-11 13:02:24 51°14.793 2°54.534 8.403191 3.417555 33.337388 27.43352
2003-03-11 13:03:24 51°14.629 2°54.738 8.650428 3.416922 33.321594 26.961589
2003-03-11 13:04:23 51°14.477 2°54.936 8.826462 3.415132 33.292455 28.276255